createdAt,value
2023-05-22T00:00:56.507Z,22.38
2023-05-22T00:03:24.589Z,22.33
2023-05-22T00:05:53.337Z,22.35
2023-05-22T00:08:19.879Z,22.33
2023-05-22T00:13:12.916Z,22.34
2023-05-22T00:15:39.517Z,22.33
2023-05-22T00:18:06.576Z,22.27
2023-05-22T00:20:38.556Z,22.28
2023-05-22T00:23:10.380Z,22.25
2023-05-22T00:25:37.701Z,22.25
2023-05-22T00:35:34.920Z,22.12
2023-05-22T00:38:03.274Z,22.12
2023-05-22T00:40:29.804Z,22.12
2023-05-22T00:42:56.355Z,22.11
2023-05-22T00:45:24.773Z,22.07
2023-05-22T00:47:51.704Z,22.07
2023-05-22T00:50:19.112Z,22.05
2023-05-22T00:52:46.202Z,22.06
2023-05-22T00:55:14.145Z,22.03
2023-05-22T00:57:42.115Z,22.02
2023-05-22T01:00:11.157Z,22.01
2023-05-22T01:02:38.264Z,21.98
2023-05-22T01:05:07.163Z,21.94
2023-05-22T01:07:37.835Z,21.93
2023-05-22T01:10:07.285Z,21.90
2023-05-22T01:15:32.075Z,21.88
2023-05-22T01:18:04.780Z,21.84
2023-05-22T01:20:33.942Z,21.84
2023-05-22T01:23:09.524Z,21.80
2023-05-22T01:25:45.427Z,21.80
2023-05-22T01:28:14.743Z,21.77
2023-05-22T01:30:47.275Z,21.76
2023-05-22T01:33:16.445Z,21.74
2023-05-22T01:35:44.873Z,21.74
2023-05-22T01:38:12.187Z,21.71
2023-05-22T01:40:38.935Z,21.69
2023-05-22T01:43:05.670Z,21.70
2023-05-22T01:45:32.293Z,21.65
2023-05-22T01:47:58.972Z,21.66
2023-05-22T01:50:26.667Z,21.65
2023-05-22T01:53:04.785Z,21.62
2023-05-22T01:58:15.787Z,21.59
2023-05-22T02:00:43.873Z,21.58
2023-05-22T02:03:13.836Z,21.56
2023-05-22T02:05:41.396Z,21.56
2023-05-22T02:08:08.285Z,21.53
2023-05-22T02:10:35.643Z,21.51
2023-05-22T02:15:28.184Z,21.52
2023-05-22T02:17:55.212Z,21.50
2023-05-22T02:20:21.819Z,21.45
2023-05-22T02:22:48.484Z,21.49
2023-05-22T02:25:17.163Z,21.46
2023-05-22T02:27:44.757Z,21.46
2023-05-22T02:30:12.138Z,21.45
2023-05-22T02:32:39.072Z,21.43
2023-05-22T02:35:05.786Z,21.45
2023-05-22T02:37:32.613Z,21.43
2023-05-22T02:39:59.276Z,21.42
2023-05-22T02:42:25.982Z,21.40
2023-05-22T02:44:52.805Z,21.39
2023-05-22T02:47:20.620Z,21.38
2023-05-22T02:49:47.733Z,21.37
2023-05-22T02:52:14.521Z,21.34
2023-05-22T02:54:41.203Z,21.34
2023-05-22T02:57:08.080Z,21.30
2023-05-22T02:59:36.857Z,21.30
2023-05-22T03:02:03.795Z,21.28
2023-05-22T03:04:30.538Z,21.29
2023-05-22T03:06:57.044Z,21.26
2023-05-22T03:09:23.571Z,21.22
2023-05-22T03:11:50.143Z,21.22
2023-05-22T03:14:16.794Z,21.21
2023-05-22T03:16:43.468Z,21.19
2023-05-22T03:19:14.546Z,21.22
2023-05-22T03:24:07.706Z,21.18
2023-05-22T03:29:00.856Z,21.17
2023-05-22T03:31:27.933Z,21.15
2023-05-22T03:33:54.510Z,21.12
2023-05-22T03:36:21.663Z,21.13
2023-05-22T03:38:48.204Z,21.10
2023-05-22T03:41:14.762Z,21.10
2023-05-22T03:43:43.400Z,21.09
2023-05-22T03:46:11.391Z,21.09
2023-05-22T03:48:38.638Z,21.05
2023-05-22T03:53:31.012Z,21.04
2023-05-22T03:56:00.267Z,21.01
2023-05-22T03:58:26.977Z,20.97
2023-05-22T04:00:54.143Z,21.02
2023-05-22T04:03:20.670Z,20.97
2023-05-22T04:05:47.584Z,21.00
2023-05-22T04:08:14.200Z,20.99
2023-05-22T04:10:40.996Z,20.99
2023-05-22T04:13:07.662Z,20.97
2023-05-22T04:15:34.231Z,20.97
2023-05-22T04:18:01.323Z,20.97
2023-05-22T04:20:27.956Z,20.95
2023-05-22T04:22:54.625Z,20.94
2023-05-22T04:25:21.727Z,20.94
2023-05-22T04:27:48.552Z,20.91
2023-05-22T04:30:17.096Z,20.93
2023-05-22T04:32:43.861Z,20.89
2023-05-22T04:35:12.294Z,20.90
2023-05-22T04:37:41.169Z,20.89
2023-05-22T04:40:08.735Z,20.88
2023-05-22T04:42:35.272Z,20.86
2023-05-22T04:45:01.987Z,20.84
2023-05-22T04:50:00.876Z,20.83
2023-05-22T04:52:27.401Z,20.81
2023-05-22T04:54:54.581Z,20.80
2023-05-22T04:59:52.944Z,20.80
2023-05-22T05:04:47.112Z,20.78
2023-05-22T05:07:17.668Z,20.77
2023-05-22T05:09:44.393Z,20.75
2023-05-22T05:12:11.016Z,20.76
2023-05-22T05:19:36.856Z,20.75
2023-05-22T05:22:03.836Z,20.72
2023-05-22T05:24:30.455Z,20.72
2023-05-22T05:26:57.054Z,20.72
2023-05-22T05:29:23.641Z,20.73
2023-05-22T05:31:50.216Z,20.76
2023-05-22T05:34:16.843Z,20.77
2023-05-22T05:36:44.012Z,20.78
2023-05-22T05:41:36.892Z,20.82
2023-05-22T05:44:03.605Z,20.82
2023-05-22T05:46:30.292Z,20.84
2023-05-22T05:48:57.889Z,20.86
2023-05-22T05:51:24.449Z,20.89
2023-05-22T05:53:51.274Z,20.92
2023-05-22T05:56:17.734Z,20.95
2023-05-22T05:58:44.365Z,20.97
2023-05-22T06:01:11.898Z,21.00
2023-05-22T06:06:05.267Z,21.05
2023-05-22T06:08:32.366Z,21.08
2023-05-22T06:10:58.963Z,21.10
2023-05-22T06:15:52.135Z,21.16
2023-05-22T06:18:18.741Z,21.18
2023-05-22T06:20:45.386Z,21.20
2023-05-22T06:23:11.903Z,21.22
2023-05-22T06:25:40.173Z,21.28
2023-05-22T06:28:06.934Z,21.32
2023-05-22T06:30:43.681Z,21.32
2023-05-22T06:33:10.775Z,21.35
2023-05-22T06:35:38.170Z,21.38
2023-05-22T06:38:05.238Z,21.42
2023-05-22T06:40:32.101Z,21.44
2023-05-22T06:43:00.055Z,21.47
2023-05-22T06:45:26.958Z,21.49
2023-05-22T06:47:54.316Z,21.52
2023-05-22T06:50:21.608Z,21.54
2023-05-22T06:52:49.264Z,21.56
2023-05-22T06:55:16.149Z,21.58
2023-05-22T06:57:43.004Z,21.61
2023-05-22T07:00:12.510Z,21.64
2023-05-22T07:02:40.059Z,21.65
2023-05-22T07:05:07.478Z,21.67
2023-05-22T07:07:34.310Z,21.68
2023-05-22T07:10:01.080Z,21.70
2023-05-22T07:12:28.157Z,21.73
2023-05-22T07:14:55.298Z,21.74
2023-05-22T07:17:22.236Z,21.76
2023-05-22T07:19:49.214Z,21.77
2023-05-22T07:22:16.304Z,21.78
2023-05-22T07:24:43.519Z,21.81
2023-05-22T07:27:11.686Z,21.81
2023-05-22T07:29:38.666Z,21.82
2023-05-22T07:32:05.969Z,21.83
2023-05-22T07:34:34.519Z,21.84
2023-05-22T07:37:07.362Z,21.85
2023-05-22T07:39:34.161Z,21.86
2023-05-22T07:42:02.075Z,21.87
2023-05-22T07:44:29.157Z,21.88
2023-05-22T07:46:55.949Z,21.89
2023-05-22T07:49:23.934Z,21.89
2023-05-22T07:51:50.814Z,21.89
2023-05-22T07:54:18.520Z,21.91
2023-05-22T07:56:46.072Z,21.91
2023-05-22T07:59:12.939Z,21.92
2023-05-22T08:01:41.920Z,21.93
2023-05-22T08:04:09.172Z,21.92
2023-05-22T08:06:36.382Z,21.93
2023-05-22T08:09:04.701Z,21.95
2023-05-22T08:11:31.612Z,21.94
2023-05-22T08:13:58.808Z,21.95
2023-05-22T08:16:26.156Z,21.96
2023-05-22T08:18:53.141Z,21.96
2023-05-22T08:21:19.976Z,21.98
2023-05-22T08:23:46.791Z,21.97
2023-05-22T08:26:15.133Z,21.97
2023-05-22T08:28:44.514Z,21.97
2023-05-22T08:31:12.134Z,21.97
2023-05-22T08:33:40.025Z,21.96
2023-05-22T08:36:06.928Z,21.98
2023-05-22T08:38:34.203Z,21.99
2023-05-22T08:41:01.362Z,21.98
2023-05-22T08:43:28.837Z,21.97
2023-05-22T08:46:00.229Z,21.97
2023-05-22T08:48:29.808Z,21.96
2023-05-22T08:50:58.460Z,21.96
2023-05-22T08:53:28.485Z,21.97
2023-05-22T08:55:55.694Z,21.96
2023-05-22T08:58:22.830Z,21.96
2023-05-22T09:00:50.420Z,21.97
2023-05-22T09:03:18.600Z,21.98
2023-05-22T09:05:46.112Z,22.01
2023-05-22T09:08:20.364Z,22.00
2023-05-22T09:10:48.321Z,22.01
2023-05-22T09:13:24.586Z,21.99
2023-05-22T09:15:51.539Z,21.98
2023-05-22T09:18:18.429Z,21.98
2023-05-22T09:20:45.553Z,21.98
2023-05-22T09:23:14.611Z,21.96
2023-05-22T09:25:42.769Z,21.97
2023-05-22T09:28:11.372Z,21.99
2023-05-22T09:30:38.487Z,22.00
2023-05-22T09:33:09.127Z,22.03
2023-05-22T09:35:37.388Z,21.98
2023-05-22T09:38:04.359Z,21.96
2023-05-22T09:40:34.995Z,21.99
2023-05-22T09:43:02.440Z,21.96
2023-05-22T09:45:29.353Z,21.94
2023-05-22T09:47:56.480Z,21.94
2023-05-22T09:50:23.339Z,21.94
2023-05-22T09:52:51.190Z,22.02
2023-05-22T09:55:19.717Z,22.07
2023-05-22T09:57:48.490Z,22.07
2023-05-22T10:00:18.321Z,22.11
2023-05-22T10:02:47.169Z,22.16
2023-05-22T10:05:17.940Z,22.25
2023-05-22T10:07:49.170Z,22.20
2023-05-22T10:10:17.760Z,22.14
2023-05-22T10:12:52.564Z,22.11
2023-05-22T10:15:19.602Z,22.15
2023-05-22T10:17:47.696Z,22.15
2023-05-22T10:20:15.452Z,22.19
2023-05-22T10:22:42.652Z,22.23
2023-05-22T10:25:10.868Z,22.28
2023-05-22T10:27:38.480Z,22.28
2023-05-22T10:30:08.512Z,22.29
2023-05-22T10:32:41.004Z,22.25
2023-05-22T10:35:10.920Z,22.27
2023-05-22T10:37:43.330Z,22.28
2023-05-22T10:40:12.728Z,22.25
2023-05-22T10:42:39.857Z,22.24
2023-05-22T10:45:08.338Z,22.30
2023-05-22T10:47:35.860Z,22.27
2023-05-22T10:50:04.423Z,22.24
2023-05-22T10:52:31.322Z,22.28
2023-05-22T10:55:00.086Z,22.32
2023-05-22T10:57:27.793Z,22.32
2023-05-22T11:00:06.531Z,22.31
2023-05-22T11:02:36.996Z,22.31
2023-05-22T11:05:07.142Z,22.33
2023-05-22T11:07:37.105Z,22.30
2023-05-22T11:10:04.118Z,22.30
2023-05-22T11:12:31.356Z,22.29
2023-05-22T11:15:00.196Z,22.31
2023-05-22T11:17:29.344Z,22.31
2023-05-22T11:20:00.246Z,22.30
2023-05-22T11:22:30.588Z,22.31
2023-05-22T11:24:57.664Z,22.31
2023-05-22T11:27:25.208Z,22.27
2023-05-22T11:29:52.867Z,22.26
2023-05-22T11:32:21.206Z,22.24
2023-05-22T11:34:50.773Z,22.26
2023-05-22T11:37:19.383Z,22.25
2023-05-22T11:39:49.517Z,22.26
2023-05-22T11:42:18.179Z,22.26
2023-05-22T11:44:45.463Z,22.29
2023-05-22T11:47:12.638Z,22.30
2023-05-22T11:49:41.113Z,22.26
2023-05-22T11:52:08.627Z,22.23
2023-05-22T11:54:38.562Z,22.24
2023-05-22T11:57:07.354Z,22.24
2023-05-22T11:59:35.025Z,22.20
2023-05-22T12:02:02.232Z,22.22
2023-05-22T12:04:29.354Z,22.22
2023-05-22T12:06:57.113Z,22.21
2023-05-22T12:09:24.339Z,22.20
2023-05-22T12:11:51.423Z,22.18
2023-05-22T12:14:18.399Z,22.17
2023-05-22T12:16:45.518Z,22.18
2023-05-22T12:19:13.470Z,22.17
2023-05-22T12:21:42.374Z,22.17
2023-05-22T12:24:09.648Z,22.16
2023-05-22T12:26:37.193Z,22.15
2023-05-22T12:29:04.765Z,22.18
2023-05-22T12:31:36.290Z,22.16
2023-05-22T12:34:05.208Z,22.13
2023-05-22T12:36:34.408Z,22.15
2023-05-22T12:39:01.517Z,22.16
2023-05-22T12:41:28.721Z,22.18
2023-05-22T12:43:55.764Z,22.15
2023-05-22T12:46:22.966Z,22.19
2023-05-22T12:48:50.061Z,22.25
2023-05-22T12:51:18.656Z,22.20
2023-05-22T12:53:47.064Z,22.15
2023-05-22T12:56:14.024Z,22.16
2023-05-22T12:58:40.942Z,22.17
2023-05-22T13:01:08.307Z,22.16
2023-05-22T13:03:35.363Z,22.18
2023-05-22T13:06:02.236Z,22.17
2023-05-22T13:08:29.132Z,22.23
2023-05-22T13:10:56.223Z,22.20
2023-05-22T13:13:23.345Z,22.24
2023-05-22T13:15:50.464Z,22.23
2023-05-22T13:18:17.565Z,22.30
2023-05-22T13:20:44.961Z,22.32
2023-05-22T13:23:11.958Z,22.37
2023-05-22T13:25:39.456Z,22.34
2023-05-22T13:28:06.645Z,22.38
2023-05-22T13:30:33.737Z,22.39
2023-05-22T13:33:00.845Z,22.43
2023-05-22T13:35:27.834Z,22.44
2023-05-22T13:37:55.193Z,22.45
2023-05-22T13:40:22.102Z,22.46
2023-05-22T13:42:49.200Z,22.47
2023-05-22T13:45:16.463Z,22.51
2023-05-22T13:47:43.918Z,22.56
2023-05-22T13:50:11.266Z,22.53
2023-05-22T13:52:38.549Z,22.49
2023-05-22T13:55:07.518Z,22.54
2023-05-22T13:57:34.715Z,22.50
2023-05-22T14:00:01.932Z,22.59
2023-05-22T14:02:29.117Z,22.61
2023-05-22T14:04:56.473Z,22.70
2023-05-22T14:07:23.915Z,22.72
2023-05-22T14:09:50.990Z,22.70
2023-05-22T14:12:17.899Z,22.73
2023-05-22T14:14:45.055Z,22.77
2023-05-22T14:17:12.284Z,22.66
2023-05-22T14:19:39.471Z,22.71
2023-05-22T14:22:06.655Z,22.66
2023-05-22T14:24:34.135Z,22.66
2023-05-22T14:27:01.503Z,22.61
2023-05-22T14:29:28.589Z,22.62
2023-05-22T14:32:02.940Z,22.69
2023-05-22T14:34:30.323Z,22.69
2023-05-22T14:36:58.710Z,22.73
2023-05-22T14:39:26.321Z,22.77
2023-05-22T14:41:54.219Z,22.76
2023-05-22T14:44:23.100Z,22.76
2023-05-22T14:46:51.393Z,22.78
2023-05-22T14:49:18.568Z,22.78
2023-05-22T14:51:48.539Z,22.78
2023-05-22T14:54:17.848Z,22.77
2023-05-22T14:56:45.347Z,22.82
2023-05-22T14:59:12.852Z,22.82
2023-05-22T15:01:40.022Z,22.82
2023-05-22T15:04:10.037Z,22.85
2023-05-22T15:06:37.425Z,22.83
2023-05-22T15:09:04.639Z,22.84
2023-05-22T15:11:31.937Z,22.84
2023-05-22T15:13:59.204Z,22.75
2023-05-22T15:18:54.126Z,22.81
2023-05-22T15:21:21.917Z,22.80
2023-05-22T15:26:16.058Z,22.83
2023-05-22T15:28:43.280Z,22.84
2023-05-22T15:31:10.944Z,22.76
2023-05-22T15:33:39.454Z,22.77
2023-05-22T15:36:06.858Z,22.74
2023-05-22T15:38:35.114Z,22.75
2023-05-22T15:41:02.290Z,22.77
2023-05-22T15:43:29.755Z,22.83
2023-05-22T15:45:57.041Z,22.75
2023-05-22T15:48:24.235Z,22.80
2023-05-22T15:50:51.837Z,22.80
2023-05-22T15:53:19.192Z,22.79
2023-05-22T15:55:47.424Z,22.76
2023-05-22T15:58:14.538Z,22.78
2023-05-22T16:00:42.144Z,22.75
2023-05-22T16:03:10.351Z,22.70
2023-05-22T16:05:39.296Z,22.67
2023-05-22T16:08:07.362Z,22.72
2023-05-22T16:10:34.968Z,22.68
2023-05-22T16:13:05.592Z,22.69
2023-05-22T16:15:34.473Z,22.67
2023-05-22T16:18:02.034Z,22.68
2023-05-22T16:20:29.310Z,22.62
2023-05-22T16:22:56.522Z,22.62
2023-05-22T16:25:23.668Z,22.58
2023-05-22T16:27:51.054Z,22.63
2023-05-22T16:30:18.647Z,22.63
2023-05-22T16:32:46.818Z,22.57
2023-05-22T16:35:14.674Z,22.56
2023-05-22T16:37:41.910Z,22.59
2023-05-22T16:40:09.773Z,22.56
2023-05-22T16:42:38.646Z,22.59
2023-05-22T16:45:06.561Z,22.60
2023-05-22T16:47:34.250Z,22.60
2023-05-22T16:50:01.591Z,22.60
2023-05-22T16:52:29.034Z,22.54
2023-05-22T16:54:56.302Z,22.53
2023-05-22T16:57:23.676Z,22.51
2023-05-22T16:59:51.041Z,22.51
2023-05-22T17:02:18.416Z,22.48
2023-05-22T17:04:46.747Z,22.46
2023-05-22T17:07:14.399Z,22.47
2023-05-22T17:09:42.240Z,22.43
2023-05-22T17:12:09.593Z,22.46
2023-05-22T17:14:36.861Z,22.45
2023-05-22T17:17:04.227Z,22.45
2023-05-22T17:19:33.182Z,22.48
2023-05-22T17:22:00.642Z,22.45
2023-05-22T17:24:28.234Z,22.44
2023-05-22T17:26:55.762Z,22.46
2023-05-22T17:29:23.102Z,22.49
2023-05-22T17:31:50.511Z,22.52
2023-05-22T17:34:17.997Z,22.54
2023-05-22T17:36:45.411Z,22.52
2023-05-22T17:39:13.007Z,22.52
2023-05-22T17:41:40.324Z,22.50
2023-05-22T17:44:07.602Z,22.48
2023-05-22T17:46:34.581Z,22.50
2023-05-22T17:49:01.803Z,22.49
2023-05-22T17:51:29.246Z,22.58
2023-05-22T17:53:58.973Z,22.64
2023-05-22T17:56:27.105Z,22.60
2023-05-22T17:58:54.394Z,22.58
2023-05-22T18:01:21.776Z,22.58
2023-05-22T18:03:48.957Z,22.59
2023-05-22T18:06:16.170Z,22.66
2023-05-22T18:08:43.135Z,22.69
2023-05-22T18:11:10.136Z,22.67
2023-05-22T18:13:37.127Z,22.67
2023-05-22T18:16:04.400Z,22.66
2023-05-22T18:18:31.497Z,22.68
2023-05-22T18:21:00.252Z,22.71
2023-05-22T18:23:27.218Z,22.66
2023-05-22T18:25:54.218Z,22.69
2023-05-22T18:28:26.698Z,22.71
2023-05-22T18:30:54.193Z,22.73
2023-05-22T18:33:21.656Z,22.73
2023-05-22T18:35:48.803Z,22.76
2023-05-22T18:38:15.820Z,22.74
2023-05-22T18:40:43.025Z,22.73
2023-05-22T18:43:10.147Z,22.71
2023-05-22T18:45:37.263Z,22.74
2023-05-22T18:48:04.517Z,22.67
2023-05-22T18:50:32.082Z,22.67
2023-05-22T18:52:59.145Z,22.70
2023-05-22T18:55:26.035Z,22.60
2023-05-22T18:57:53.005Z,22.61
2023-05-22T19:00:20.069Z,22.59
2023-05-22T19:02:47.818Z,22.61
2023-05-22T19:05:15.630Z,22.66
2023-05-22T19:07:42.744Z,22.62
2023-05-22T19:10:10.045Z,22.60
2023-05-22T19:12:36.948Z,22.52
2023-05-22T19:15:03.945Z,22.55
2023-05-22T19:17:30.976Z,22.59
2023-05-22T19:19:58.221Z,22.72
2023-05-22T19:22:25.508Z,22.82
2023-05-22T19:24:52.622Z,22.82
2023-05-22T19:27:19.773Z,22.90
2023-05-22T19:29:46.919Z,22.91
2023-05-22T19:32:14.553Z,23.03
2023-05-22T19:34:41.883Z,23.10
2023-05-22T19:37:09.058Z,23.12
2023-05-22T19:39:36.187Z,23.18
2023-05-22T19:42:03.381Z,23.27
2023-05-22T19:44:30.752Z,23.23
2023-05-22T19:46:57.906Z,23.35
2023-05-22T19:49:24.972Z,23.28
2023-05-22T19:51:54.129Z,23.29
2023-05-22T19:54:22.597Z,23.35
2023-05-22T19:56:49.807Z,23.38
2023-05-22T19:59:17.024Z,23.39
2023-05-22T20:01:44.023Z,23.33
2023-05-22T20:04:11.117Z,23.34
2023-05-22T20:06:38.041Z,23.30
2023-05-22T20:09:06.060Z,23.28
2023-05-22T20:11:33.071Z,23.26
2023-05-22T20:14:00.117Z,23.29
2023-05-22T20:16:29.407Z,23.32
2023-05-22T20:18:56.689Z,23.19
2023-05-22T20:21:23.985Z,23.17
2023-05-22T20:23:51.696Z,23.19
2023-05-22T20:26:20.061Z,23.17
2023-05-22T20:28:47.040Z,23.20
2023-05-22T20:31:14.213Z,23.12
2023-05-22T20:33:41.389Z,23.14
2023-05-22T20:36:08.883Z,23.11
